createdAt,value
2022-10-17T00:00:26.024Z,101696.22
2022-10-17T00:03:00.952Z,101681.47
2022-10-17T00:05:37.321Z,101675.06
2022-10-17T00:08:22.333Z,101722.50
2022-10-17T00:11:14.068Z,101708.09
2022-10-17T00:17:32.043Z,101682.41
2022-10-17T00:20:10.750Z,101675.94
2022-10-17T00:22:37.527Z,101671.16
2022-10-17T00:25:07.747Z,101725.75
2022-10-17T00:27:46.702Z,101664.84
2022-10-17T00:30:24.353Z,101673.47
2022-10-17T00:33:13.836Z,101674.53
2022-10-17T00:35:56.430Z,101665.47
2022-10-17T00:38:28.756Z,101671.78
2022-10-17T00:41:07.055Z,101698.94
2022-10-17T00:44:08.230Z,101712.69
2022-10-17T00:48:22.526Z,101679.53
2022-10-17T00:50:26.541Z,101686.84
2022-10-17T00:53:10.643Z,101718.53
2022-10-17T00:55:52.655Z,101691.53
2022-10-17T00:58:25.280Z,101702.53
2022-10-17T01:01:07.804Z,101700.16
2022-10-17T01:03:37.483Z,101711.47
2022-10-17T01:06:10.004Z,101695.72
2022-10-17T01:08:42.660Z,101669.22
2022-10-17T01:11:30.994Z,101701.47
2022-10-17T01:14:28.676Z,101654.03
2022-10-17T01:17:22.450Z,101675.22
2022-10-17T01:20:08.170Z,101701.94
2022-10-17T01:22:47.625Z,101663.78
2022-10-17T01:25:46.721Z,101715.75
2022-10-17T01:28:54.862Z,101664.19
2022-10-17T01:31:40.243Z,101689.00
2022-10-17T01:34:22.632Z,101669.41
2022-10-17T01:37:20.699Z,101687.38
2022-10-17T01:40:07.743Z,101682.41
2022-10-17T01:43:21.812Z,101645.84
2022-10-17T01:46:33.975Z,101648.81
2022-10-17T01:49:18.832Z,101646.06
2022-10-17T01:52:17.111Z,101643.53
2022-10-17T01:54:52.714Z,101672.91
2022-10-17T02:00:40.282Z,101654.69
2022-10-17T02:04:18.640Z,101644.00
2022-10-17T02:06:50.526Z,101654.13
2022-10-17T02:09:27.907Z,101646.03
2022-10-17T02:12:40.569Z,101686.72
2022-10-17T02:19:03.391Z,101673.16
2022-10-17T02:22:05.122Z,101615.81
2022-10-17T02:24:55.268Z,101678.81
2022-10-17T02:27:35.857Z,101631.22
2022-10-17T02:30:32.566Z,101636.25
2022-10-17T02:33:43.126Z,101628.06
2022-10-17T02:36:38.298Z,101611.59
2022-10-17T02:39:32.661Z,101660.63
2022-10-17T02:42:16.344Z,101633.28
2022-10-17T02:44:53.035Z,101632.63
2022-10-17T02:47:45.176Z,101652.56
2022-10-17T02:50:36.822Z,101611.91
2022-10-17T02:53:14.010Z,101624.28
2022-10-17T02:56:02.536Z,101614.03
2022-10-17T02:59:00.434Z,101608.19
2022-10-17T03:01:48.222Z,101618.19
2022-10-17T03:04:33.653Z,101651.84
2022-10-17T03:07:10.499Z,101598.97
2022-10-17T03:10:05.216Z,101612.31
2022-10-17T03:12:41.135Z,101612.31
2022-10-17T03:19:21.641Z,101621.13
2022-10-17T03:21:57.467Z,101620.38
2022-10-17T03:24:24.401Z,101645.41
2022-10-17T04:24:26.656Z,101635.63
2022-10-17T04:33:36.973Z,101617.31
2022-10-17T04:36:34.687Z,101589.53
2022-10-17T04:39:10.772Z,101587.78
2022-10-17T04:41:49.018Z,101585.22
2022-10-17T04:44:18.956Z,101589.22
2022-10-17T04:47:14.118Z,101583.69
2022-10-17T04:52:34.382Z,101617.41
2022-10-17T04:55:00.980Z,101581.16
2022-10-17T04:57:39.705Z,101599.47
2022-10-17T05:00:12.822Z,101568.41
2022-10-17T05:02:41.813Z,101620.38
2022-10-17T05:05:31.264Z,101580.31
2022-10-17T05:14:59.280Z,101608.19
2022-10-17T05:31:45.579Z,101614.31
2022-10-17T05:34:35.048Z,101577.53
2022-10-17T05:37:19.412Z,101585.28
2022-10-17T05:41:13.285Z,101566.22
2022-10-17T05:48:15.141Z,101635.13
2022-10-17T05:51:20.064Z,101635.78
2022-10-17T05:53:58.461Z,101590.47
2022-10-17T06:04:38.076Z,101608.94
2022-10-17T06:07:09.900Z,101607.13
2022-10-17T07:15:28.161Z,101712.59
2022-10-17T07:18:00.965Z,101658.97
2022-10-17T07:20:35.637Z,101711.69
2022-10-17T07:23:05.556Z,101669.03
2022-10-17T07:25:40.147Z,101670.84
2022-10-17T07:28:09.573Z,101691.81
2022-10-17T07:30:36.178Z,101712.84
2022-10-17T07:33:07.795Z,101691.44
2022-10-17T07:35:41.865Z,101696.22
2022-10-17T07:38:16.667Z,101664.78
2022-10-17T07:40:43.806Z,101668.22
2022-10-17T07:43:14.791Z,101673.75
2022-10-17T07:45:41.808Z,101696.91
2022-10-17T07:48:09.821Z,101700.50
2022-10-17T07:50:39.809Z,101663.22
2022-10-17T07:53:06.740Z,101676.72
2022-10-17T07:55:45.088Z,101675.69
2022-10-17T08:05:56.160Z,101688.06
2022-10-17T08:09:11.408Z,101703.47
2022-10-17T08:18:25.428Z,101699.16
2022-10-17T08:21:00.317Z,101665.34
2022-10-17T08:23:35.964Z,101713.53
2022-10-17T08:26:33.013Z,101669.78
2022-10-17T09:04:53.235Z,101693.81
2022-10-17T09:07:32.826Z,101687.97
2022-10-17T09:10:21.933Z,101654.16
2022-10-17T09:17:54.700Z,101685.72
2022-10-17T09:24:15.415Z,101660.25
2022-10-17T09:26:47.473Z,101655.56
2022-10-17T09:29:55.143Z,101671.00
2022-10-17T09:32:34.921Z,101666.13
2022-10-17T09:43:45.086Z,101637.69
2022-10-17T09:46:33.091Z,101684.00
2022-10-17T09:49:12.313Z,101651.97
2022-10-17T09:51:48.292Z,101649.00
2022-10-17T09:55:09.091Z,101682.09
2022-10-17T09:58:04.753Z,101680.97
2022-10-17T10:01:11.170Z,101652.72
2022-10-17T10:03:37.821Z,101682.75
2022-10-17T10:07:06.627Z,101663.56
2022-10-17T10:09:51.732Z,101652.56
2022-10-17T10:12:34.000Z,101656.31
2022-10-17T10:15:34.259Z,101639.44
2022-10-17T10:18:23.070Z,101650.75
2022-10-17T10:21:13.121Z,101671.88
2022-10-17T10:23:47.965Z,101658.13
2022-10-17T10:26:29.657Z,101655.16
2022-10-17T10:29:01.720Z,101696.03
2022-10-17T10:31:39.873Z,101659.97
2022-10-17T10:34:43.316Z,101661.59
2022-10-17T10:37:20.375Z,101691.44
2022-10-17T10:39:57.478Z,101693.53
2022-10-17T10:42:39.476Z,101672.78
2022-10-17T10:45:43.226Z,101686.72
2022-10-17T10:48:39.381Z,101673.66
2022-10-17T10:51:14.632Z,101660.38
2022-10-17T10:53:52.771Z,101679.72
2022-10-17T10:56:58.304Z,101672.72
2022-10-17T10:59:45.966Z,101650.25
2022-10-17T11:02:28.315Z,101663.94
2022-10-17T11:05:22.570Z,101678.94
2022-10-17T11:08:22.201Z,101633.66
2022-10-17T11:11:01.148Z,101674.78
2022-10-17T11:13:53.301Z,101662.19
2022-10-17T11:16:49.598Z,101638.53
2022-10-17T11:19:31.390Z,101654.75
2022-10-17T11:22:28.174Z,101656.69
2022-10-17T11:25:05.680Z,101605.16
2022-10-17T11:27:37.522Z,101617.06
2022-10-17T11:30:57.927Z,101620.00
2022-10-17T11:33:58.960Z,101656.47
2022-10-17T11:36:35.561Z,101622.84
2022-10-17T11:39:18.318Z,101628.34
2022-10-17T11:42:06.879Z,101641.00
2022-10-17T11:44:40.427Z,101644.66
2022-10-17T11:47:16.892Z,101656.53
2022-10-17T11:53:56.513Z,101605.38
2022-10-17T11:56:43.154Z,101605.53
2022-10-17T11:59:31.267Z,101640.50
2022-10-17T12:04:59.245Z,101630.81
2022-10-17T12:07:48.626Z,101618.97
2022-10-17T12:11:04.713Z,101622.47
2022-10-17T12:14:04.963Z,101632.72
2022-10-17T12:16:48.941Z,101601.78
2022-10-17T12:19:26.580Z,101593.81
2022-10-17T12:29:05.844Z,101588.56
2022-10-17T12:31:45.836Z,101588.91
2022-10-17T12:34:22.467Z,101587.59
2022-10-17T12:36:55.332Z,101579.19
2022-10-17T13:02:41.561Z,101559.00
2022-10-17T13:05:18.933Z,101603.53
2022-10-17T13:08:09.273Z,101550.09
2022-10-17T13:10:43.067Z,101571.09
2022-10-17T13:13:52.172Z,101592.88
2022-10-17T13:19:26.924Z,101563.38
2022-10-17T13:22:02.262Z,101571.59
2022-10-17T13:25:08.760Z,101597.50
2022-10-17T13:27:44.269Z,101553.75
2022-10-17T13:31:23.089Z,101592.84
2022-10-17T13:33:57.258Z,101598.16
2022-10-17T13:36:26.625Z,101569.81
2022-10-17T13:43:48.123Z,101594.91
2022-10-17T13:46:39.797Z,101536.59
2022-10-17T13:49:29.894Z,101598.66
2022-10-17T13:52:44.906Z,101542.88
2022-10-17T14:05:32.152Z,101578.53
2022-10-17T14:50:17.396Z,101626.81
2022-10-17T14:53:40.599Z,101590.72
2022-10-17T15:19:09.009Z,101635.50
2022-10-17T17:45:45.056Z,101663.72
2022-10-17T17:48:31.886Z,101647.91
2022-10-17T21:30:43.060Z,101865.13
2022-10-17T21:33:25.625Z,101821.78
2022-10-17T21:36:17.455Z,101819.16
2022-10-17T21:49:28.011Z,101839.03
2022-10-17T21:52:13.802Z,101835.88
2022-10-17T21:54:40.454Z,101852.78
2022-10-17T21:57:07.138Z,101864.38
2022-10-17T21:59:35.583Z,101892.00
2022-10-17T22:02:04.440Z,101866.28
2022-10-17T22:04:31.513Z,101860.81
2022-10-17T22:06:58.370Z,101854.28
2022-10-17T22:09:26.341Z,101860.34
2022-10-17T22:11:55.712Z,101883.16
2022-10-17T22:14:24.984Z,101855.41
2022-10-17T22:19:41.794Z,101852.06
2022-10-17T22:22:08.665Z,101867.22
2022-10-17T22:24:36.356Z,101869.94
2022-10-17T22:27:03.161Z,101898.38
2022-10-17T22:29:34.004Z,101909.97
2022-10-17T22:32:01.729Z,101887.41
2022-10-17T22:34:28.542Z,101872.50
2022-10-17T22:36:54.994Z,101906.44
2022-10-17T22:39:21.624Z,101870.56
2022-10-17T22:41:50.567Z,101908.38
2022-10-17T22:44:57.290Z,101866.16
2022-10-17T22:47:27.168Z,101876.94
2022-10-17T22:49:54.169Z,101858.13
2022-10-17T22:52:23.819Z,101862.66
2022-10-17T22:54:50.620Z,101891.25
2022-10-17T22:57:17.245Z,101915.38
2022-10-17T22:59:46.848Z,101866.81
2022-10-17T23:02:13.383Z,101887.94
2022-10-17T23:04:40.080Z,101894.81
2022-10-17T23:07:13.235Z,101903.38
2022-10-17T23:09:41.724Z,101852.25
2022-10-17T23:12:09.412Z,101864.63
2022-10-17T23:14:40.629Z,101897.94
2022-10-17T23:17:07.243Z,101899.16
2022-10-17T23:19:34.279Z,101859.88
2022-10-17T23:22:03.857Z,101886.03
2022-10-17T23:24:30.493Z,101891.41
2022-10-17T23:26:57.232Z,101907.06
2022-10-17T23:29:24.063Z,101901.44
2022-10-17T23:31:58.718Z,101835.88
2022-10-17T23:34:25.601Z,101855.16
2022-10-17T23:37:03.235Z,101894.09
2022-10-17T23:39:29.850Z,101910.91
2022-10-17T23:41:56.589Z,101888.34
2022-10-17T23:44:23.811Z,101917.09
2022-10-17T23:46:50.560Z,101865.66
2022-10-17T23:49:17.015Z,101911.66
2022-10-17T23:51:43.585Z,101867.63
2022-10-17T23:54:10.094Z,101891.97
2022-10-17T23:56:36.683Z,101889.03
2022-10-17T23:59:03.315Z,101872.88
